Welkom op de website van Weerstation Hoek van Holland.

Onweer radar Meer informatie blitzortung!


Regen radar Meer informatie rain snow radar



METAR rapporten vliegvelden

   
EHRD - Rotterdam International Airport, NL
Afstand tot: Oost 31 km
Gewijzigd: 25-05-2020 19:25
Helder  
Helder  
   Wind: NNW 13 km/h
Wind: NNW 13 km/h
Temperatuur: 17°C
Dauwpunt: 9°C
Vochtigheid: 59%
Barometer: 1034 hPa
Bewolking: Clear
Zicht: meer dan 10 km
Bewolking: Helder ft
EHRD 251725Z AUTO 34007KT 290V030 9999 NCD 17/09 Q1034 NOSIG
EHAM - Amsterdam Schiphol, NL
Afstand tot: Noord 17 km
Gewijzigd: 25-05-2020 19:25
Helder  
Helder  
   Wind: NW 16.7 km/h
Wind: NW 16.7 km/h
Temperatuur: 17°C
Dauwpunt: 10°C
Vochtigheid: 64%
Barometer: 1034 hPa
Zicht: meer dan 10 km
Bewolking: Helder ft
EHAM 251725Z 32009KT 290V350 CAVOK 17/10 Q1034 NOSIG
EBAW - Antwerpen/Deurne, B
Afstand tot: Zuid 138 km
Gewijzigd: 25-05-2020 19:20
Helder  
Helder  
   Wind: Noorden 14.8 km/h
Wind: Noorden 14.8 km/h
Temperatuur: 20°C
Dauwpunt: 9°C
Vochtigheid: 49%
Barometer: 1034 hPa
Zicht: meer dan 10 km
Bewolking: Helder ft
EBAW 251720Z AUTO 36008KT 320V030 CAVOK 20/09 Q1034
EHEH - Eindhoven, NL
Afstand tot: OZO 140 km
Gewijzigd: 25-05-2020 19:25
Grotendeels bewolkt  
Grotendeels bewolkt  
   Wind: NNW 16.7 km/h
Wind: NNW 16.7 km/h
Temperatuur: 21°C
Dauwpunt: 9°C
Vochtigheid: 46%
Barometer: 1033 hPa
Bewolking: Mostly Cloudy
Zicht: meer dan 10 km
Bewolking: Gedeeltelijk bewolkt 4400 ft,
Grotendeels bewolkt 4800 ft,
Grotendeels bewolkt 5200 ft
EHEH 251725Z AUTO 33009KT 260V040 9999 SCT044 BKN048 BKN052 21/09 Q1033 BLU
  

Script ontwikkeld door  Saratoga-weather.org Aangepast voor de template door  Weerstation Leuven

Apparatuur in gebruik:

Weerstation
Davis VP2

Weerprogramma
Meteobridge

Weercomputer
meteobridge met meteostick

Webleverancier
Strato

Davis VP2

Meteobridge

meteobridge met meteostick

Strato